createdAt,value
2018-05-31T00:00:56.635Z,6.83
2018-05-31T00:03:29.661Z,6.50
2018-05-31T00:06:02.052Z,5.93
2018-05-31T00:08:34.326Z,7.00
2018-05-31T00:11:06.642Z,6.17
2018-05-31T00:13:38.925Z,6.33
2018-05-31T00:16:11.261Z,6.33
2018-05-31T00:18:44.288Z,6.00
2018-05-31T00:21:16.838Z,5.67
2018-05-31T00:23:49.225Z,6.47
2018-05-31T00:26:21.603Z,5.63
2018-05-31T00:28:53.974Z,5.97
2018-05-31T00:31:26.419Z,6.40
2018-05-31T00:33:59.476Z,6.73
2018-05-31T00:36:31.828Z,6.00
2018-05-31T00:39:04.196Z,5.90
2018-05-31T00:41:36.500Z,5.73
2018-05-31T00:44:08.795Z,5.87
2018-05-31T00:46:41.934Z,6.87
2018-05-31T00:49:14.159Z,6.03
2018-05-31T00:51:47.223Z,6.60
2018-05-31T00:54:19.561Z,6.40
2018-05-31T00:56:52.025Z,6.63
2018-05-31T00:59:24.342Z,7.70
2018-05-31T01:01:56.703Z,7.23
2018-05-31T01:04:29.090Z,7.17
2018-05-31T01:07:01.402Z,8.30
2018-05-31T01:09:33.835Z,6.97
2018-05-31T01:12:06.160Z,7.27
2018-05-31T01:14:38.463Z,6.93
2018-05-31T01:17:10.803Z,7.50
2018-05-31T01:19:43.139Z,6.70
2018-05-31T01:22:16.230Z,7.37
2018-05-31T01:24:48.544Z,6.80
2018-05-31T01:27:21.010Z,7.33
2018-05-31T01:29:53.327Z,7.03
2018-05-31T01:32:25.688Z,7.60
2018-05-31T01:34:57.975Z,7.77
2018-05-31T01:37:30.316Z,7.80
2018-05-31T01:40:02.682Z,7.17
2018-05-31T01:42:35.002Z,7.97
2018-05-31T01:45:07.335Z,8.10
2018-05-31T01:47:39.669Z,8.20
2018-05-31T01:50:11.970Z,7.03
2018-05-31T01:52:44.269Z,6.43
2018-05-31T01:55:16.642Z,6.93
2018-05-31T01:57:49.044Z,7.37
2018-05-31T02:00:22.237Z,7.13
2018-05-31T02:02:55.446Z,7.50
2018-05-31T02:05:27.726Z,8.53
2018-05-31T02:08:00.071Z,8.20
2018-05-31T02:10:32.340Z,7.03
2018-05-31T02:13:05.411Z,7.53
2018-05-31T02:15:37.678Z,7.40
2018-05-31T02:18:09.980Z,8.07
2018-05-31T02:20:43.037Z,7.77
2018-05-31T02:23:15.422Z,7.43
2018-05-31T02:25:47.778Z,8.03
2018-05-31T02:28:20.336Z,8.30
2018-05-31T02:30:52.654Z,7.50
2018-05-31T02:33:25.771Z,7.47
2018-05-31T02:35:58.032Z,9.77
2018-05-31T02:38:30.299Z,7.93
2018-05-31T02:41:02.710Z,7.93
2018-05-31T02:43:35.053Z,8.03
2018-05-31T02:46:07.468Z,9.03
2018-05-31T02:48:39.833Z,7.87
2018-05-31T02:51:12.168Z,7.67
2018-05-31T02:53:44.552Z,8.13
2018-05-31T02:56:16.867Z,8.43
2018-05-31T02:58:49.242Z,8.20
2018-05-31T03:01:21.543Z,8.30
2018-05-31T03:03:54.747Z,8.07
2018-05-31T03:06:26.993Z,8.03
2018-05-31T03:08:59.285Z,8.77
2018-05-31T03:11:31.605Z,8.33
2018-05-31T03:14:04.035Z,7.93
2018-05-31T03:16:36.364Z,7.97
2018-05-31T03:19:08.769Z,8.43
2018-05-31T03:21:41.869Z,8.33
2018-05-31T03:24:15.028Z,7.67
2018-05-31T03:26:47.357Z,8.00
2018-05-31T03:29:19.704Z,8.87
2018-05-31T03:31:52.038Z,9.13
2018-05-31T03:34:24.380Z,7.57
2018-05-31T03:36:56.746Z,8.03
2018-05-31T03:39:29.076Z,8.57
2018-05-31T03:42:02.170Z,8.53
2018-05-31T03:44:35.331Z,7.60
2018-05-31T03:47:07.736Z,9.70
2018-05-31T03:49:40.858Z,8.67
2018-05-31T03:52:13.192Z,8.00
2018-05-31T03:54:46.330Z,8.97
2018-05-31T03:57:18.748Z,8.53
2018-05-31T03:59:51.825Z,8.50
2018-05-31T04:02:24.174Z,7.80
2018-05-31T04:04:56.520Z,8.97
2018-05-31T04:07:28.860Z,7.67
2018-05-31T04:10:02.005Z,8.37
2018-05-31T04:12:34.280Z,8.93
2018-05-31T04:15:06.554Z,8.87
2018-05-31T04:17:38.900Z,9.13
2018-05-31T04:20:11.367Z,9.63
2018-05-31T04:22:43.794Z,9.20
2018-05-31T04:25:16.193Z,9.33
2018-05-31T04:27:49.206Z,8.90
2018-05-31T04:30:21.481Z,8.50
2018-05-31T04:32:53.815Z,9.20
2018-05-31T04:35:26.149Z,9.47
2018-05-31T04:37:58.453Z,9.50
2018-05-31T04:40:30.800Z,8.43
2018-05-31T04:43:03.162Z,9.97
2018-05-31T04:45:35.482Z,8.73
2018-05-31T04:48:08.676Z,10.17
2018-05-31T04:50:41.776Z,9.77
2018-05-31T04:53:14.877Z,8.57
2018-05-31T04:55:47.403Z,9.90
2018-05-31T04:58:19.907Z,11.13
2018-05-31T05:00:53.150Z,8.80
2018-05-31T05:03:25.491Z,9.03
2018-05-31T05:05:57.908Z,8.67
2018-05-31T05:08:30.240Z,10.33
2018-05-31T05:11:02.683Z,8.67
2018-05-31T05:13:35.084Z,9.00
2018-05-31T05:16:07.460Z,7.97
2018-05-31T05:18:39.831Z,9.07
2018-05-31T05:21:12.909Z,8.27
2018-05-31T05:23:45.138Z,9.20
2018-05-31T05:26:17.460Z,8.97
2018-05-31T05:28:50.454Z,8.83
2018-05-31T05:31:22.823Z,7.93
2018-05-31T05:33:55.151Z,7.70
2018-05-31T05:36:27.481Z,8.27
2018-05-31T05:38:59.785Z,7.47
2018-05-31T05:41:32.110Z,8.37
2018-05-31T05:44:04.432Z,7.77
2018-05-31T05:46:36.893Z,6.47
2018-05-31T05:49:09.316Z,6.87
2018-05-31T05:51:42.882Z,6.97
2018-05-31T05:54:15.165Z,7.37
2018-05-31T05:56:47.557Z,7.70
2018-05-31T05:59:20.632Z,7.00
2018-05-31T06:01:52.989Z,6.07
2018-05-31T06:04:25.290Z,6.40
2018-05-31T06:06:57.592Z,6.73
2018-05-31T06:09:29.961Z,6.53
2018-05-31T06:12:02.300Z,6.90
2018-05-31T06:14:35.391Z,6.10
2018-05-31T06:17:07.672Z,6.20
2018-05-31T06:19:40.757Z,5.77
2018-05-31T06:22:13.092Z,5.83
2018-05-31T06:24:45.382Z,6.40
2018-05-31T06:27:17.790Z,6.77
2018-05-31T06:29:50.142Z,6.17
2018-05-31T06:32:23.193Z,5.90
2018-05-31T06:34:55.568Z,6.20
2018-05-31T06:37:28.025Z,5.70
2018-05-31T06:40:01.034Z,6.43
2018-05-31T06:42:33.312Z,6.13
2018-05-31T06:45:05.560Z,6.13
2018-05-31T06:47:37.951Z,5.87
2018-05-31T06:50:10.440Z,5.73
2018-05-31T06:52:42.915Z,6.57
2018-05-31T06:55:15.320Z,6.20
2018-05-31T06:57:48.484Z,5.97
2018-05-31T07:00:20.755Z,5.43
2018-05-31T07:02:53.112Z,6.28
2018-05-31T07:05:25.384Z,5.35
2018-05-31T07:07:57.743Z,5.93
2018-05-31T07:10:30.089Z,5.35
2018-05-31T07:13:02.427Z,5.60
2018-05-31T07:15:34.762Z,6.30
2018-05-31T07:18:07.113Z,5.57
2018-05-31T07:20:39.508Z,5.25
2018-05-31T07:23:11.816Z,5.47
2018-05-31T07:25:44.150Z,5.12
2018-05-31T07:28:16.479Z,5.00
2018-05-31T07:30:49.638Z,5.10
2018-05-31T07:33:22.003Z,4.55
2018-05-31T07:35:54.362Z,4.62
2018-05-31T07:38:26.690Z,4.55
2018-05-31T07:40:59.822Z,4.87
2018-05-31T07:43:32.130Z,4.40
2018-05-31T07:46:04.405Z,4.93
2018-05-31T07:48:36.702Z,4.55
2018-05-31T07:51:09.021Z,4.22
2018-05-31T07:53:41.316Z,3.70
2018-05-31T07:56:13.656Z,4.37
2018-05-31T07:58:46.000Z,3.85
2018-05-31T08:01:18.368Z,4.50
2018-05-31T08:03:50.724Z,4.05
2018-05-31T08:06:23.755Z,4.00
2018-05-31T08:08:56.049Z,4.10
2018-05-31T08:11:28.413Z,3.92
2018-05-31T08:14:00.814Z,3.72
2018-05-31T08:16:33.161Z,4.20
2018-05-31T08:19:05.446Z,3.95
2018-05-31T08:21:37.740Z,3.58
2018-05-31T08:24:10.905Z,3.60
2018-05-31T08:26:43.201Z,3.58
2018-05-31T08:29:15.557Z,3.72
2018-05-31T08:31:47.907Z,3.50
2018-05-31T08:34:20.322Z,3.35
2018-05-31T08:36:53.376Z,3.53
2018-05-31T08:39:25.763Z,3.80
2018-05-31T08:41:58.114Z,3.65
2018-05-31T08:44:30.454Z,3.30
2018-05-31T08:47:02.767Z,3.55
2018-05-31T08:49:35.146Z,3.03
2018-05-31T08:52:07.390Z,3.33
2018-05-31T08:54:39.772Z,3.37
2018-05-31T08:57:12.058Z,3.40
2018-05-31T08:59:44.347Z,3.10
2018-05-31T09:02:16.801Z,3.17
2018-05-31T09:04:49.289Z,3.12
2018-05-31T09:07:21.530Z,3.78
2018-05-31T09:09:53.943Z,3.50
2018-05-31T09:12:26.990Z,3.55
2018-05-31T09:14:59.321Z,3.10
2018-05-31T09:17:32.345Z,3.05
2018-05-31T09:20:04.800Z,3.42
2018-05-31T09:22:37.115Z,3.00
2018-05-31T09:25:09.514Z,3.42
2018-05-31T09:27:41.823Z,3.78
2018-05-31T09:30:14.140Z,3.20
2018-05-31T09:32:46.472Z,2.92
2018-05-31T09:35:18.916Z,3.40
2018-05-31T09:37:52.083Z,3.40
2018-05-31T09:40:24.465Z,3.22
2018-05-31T09:42:56.781Z,4.22
2018-05-31T09:45:29.118Z,3.05
2018-05-31T09:48:02.255Z,3.00
2018-05-31T09:50:34.584Z,3.58
2018-05-31T09:53:07.611Z,3.83
2018-05-31T09:55:39.951Z,3.70
2018-05-31T09:58:13.105Z,3.40
2018-05-31T10:00:45.427Z,3.45
2018-05-31T10:03:17.810Z,3.35
2018-05-31T10:05:50.153Z,3.70
2018-05-31T10:08:23.327Z,3.62
2018-05-31T10:10:55.603Z,3.95
2018-05-31T10:13:27.839Z,3.45
2018-05-31T10:16:00.161Z,3.33
2018-05-31T10:18:32.388Z,3.10
2018-05-31T10:21:04.759Z,3.30
2018-05-31T10:23:37.279Z,3.43
2018-05-31T10:26:10.447Z,3.30
2018-05-31T10:28:42.780Z,3.77
2018-05-31T10:31:15.231Z,3.30
2018-05-31T10:33:47.489Z,3.00
2018-05-31T10:36:20.544Z,3.10
2018-05-31T10:38:52.810Z,3.50
2018-05-31T10:41:25.090Z,3.03
2018-05-31T10:43:57.439Z,3.03
2018-05-31T10:46:29.923Z,3.07
2018-05-31T10:49:02.271Z,3.80
2018-05-31T10:51:34.679Z,3.30
2018-05-31T10:54:07.139Z,2.80
2018-05-31T10:56:39.523Z,3.50
2018-05-31T10:59:12.027Z,3.20
2018-05-31T11:01:44.343Z,2.90
2018-05-31T11:04:16.640Z,3.00
2018-05-31T11:06:49.163Z,3.03
2018-05-31T11:09:22.279Z,2.60
2018-05-31T11:11:54.634Z,3.20
2018-05-31T11:14:26.893Z,2.67
2018-05-31T11:16:59.245Z,2.80
2018-05-31T11:19:31.565Z,3.33
2018-05-31T11:22:03.986Z,3.40
2018-05-31T11:24:37.126Z,3.07
2018-05-31T11:27:09.472Z,2.63
2018-05-31T11:29:42.517Z,3.17
2018-05-31T11:32:14.989Z,2.80
2018-05-31T11:34:47.402Z,2.87
2018-05-31T11:37:19.702Z,3.00
2018-05-31T11:39:52.117Z,2.80
2018-05-31T11:42:24.546Z,2.90
2018-05-31T11:44:56.842Z,2.93
2018-05-31T11:47:29.286Z,3.03
2018-05-31T11:50:01.673Z,3.13
2018-05-31T11:52:34.053Z,3.07
2018-05-31T11:55:06.403Z,2.87
2018-05-31T11:57:39.648Z,3.03
2018-05-31T12:00:12.072Z,2.90
2018-05-31T12:02:44.341Z,2.50
2018-05-31T12:05:16.659Z,2.77
2018-05-31T12:07:49.058Z,2.50
2018-05-31T12:10:22.155Z,2.40
2018-05-31T12:12:55.224Z,2.40
2018-05-31T12:15:27.587Z,2.80
2018-05-31T12:17:59.935Z,3.27
2018-05-31T12:20:32.318Z,2.93
2018-05-31T12:23:04.652Z,2.40
2018-05-31T12:25:37.051Z,2.93
2018-05-31T12:28:09.380Z,2.77
2018-05-31T12:30:42.500Z,2.83
2018-05-31T12:33:14.833Z,2.60
2018-05-31T12:35:47.161Z,2.50
2018-05-31T12:38:19.571Z,2.53
2018-05-31T12:40:51.867Z,3.10
2018-05-31T12:43:25.058Z,2.67
2018-05-31T12:45:58.074Z,2.83
2018-05-31T12:48:30.431Z,2.50
2018-05-31T12:51:02.855Z,2.90
2018-05-31T12:53:35.207Z,2.50
2018-05-31T12:56:07.627Z,2.90
2018-05-31T12:58:40.994Z,2.60
2018-05-31T13:01:13.229Z,2.70
2018-05-31T13:03:45.657Z,2.50
2018-05-31T13:06:18.005Z,2.30
2018-05-31T13:08:50.342Z,2.87
2018-05-31T13:11:22.692Z,2.70
2018-05-31T13:13:55.058Z,2.53
2018-05-31T13:16:27.388Z,2.70
2018-05-31T13:18:59.714Z,2.67
2018-05-31T13:21:32.843Z,3.10
2018-05-31T13:24:05.317Z,2.30
2018-05-31T13:26:37.705Z,2.40
2018-05-31T13:29:10.089Z,2.77
2018-05-31T13:31:42.346Z,2.80
2018-05-31T13:34:14.747Z,2.40
2018-05-31T13:36:47.072Z,2.57
2018-05-31T13:39:19.381Z,2.30
2018-05-31T13:41:51.639Z,2.50
2018-05-31T13:44:24.022Z,2.90
2018-05-31T13:46:56.278Z,3.07
2018-05-31T13:49:28.666Z,2.33
2018-05-31T13:52:00.955Z,2.90
2018-05-31T13:54:34.062Z,2.97
2018-05-31T13:57:07.117Z,2.50
2018-05-31T13:59:39.514Z,2.73
2018-05-31T14:02:11.831Z,2.70
2018-05-31T14:04:44.237Z,2.70
2018-05-31T14:07:16.518Z,2.73
2018-05-31T14:09:48.859Z,2.63
2018-05-31T14:12:21.260Z,2.63
2018-05-31T14:14:53.668Z,2.23
2018-05-31T14:17:26.784Z,2.40
2018-05-31T14:19:59.209Z,2.53
2018-05-31T14:22:31.634Z,2.80
2018-05-31T14:25:03.993Z,2.50
2018-05-31T14:27:36.295Z,2.60
2018-05-31T14:30:08.627Z,2.63
2018-05-31T14:32:40.919Z,2.53
2018-05-31T14:35:13.907Z,2.50
2018-05-31T14:37:46.317Z,2.47
2018-05-31T14:40:18.677Z,2.70
2018-05-31T14:42:51.155Z,2.73
2018-05-31T14:45:23.485Z,2.97
2018-05-31T14:47:55.876Z,2.30
2018-05-31T14:50:28.303Z,2.63
2018-05-31T14:53:00.688Z,2.80
2018-05-31T14:55:33.627Z,2.53
2018-05-31T14:58:05.950Z,3.00
2018-05-31T15:00:39.075Z,2.70
2018-05-31T15:03:11.740Z,2.80
2018-05-31T15:05:44.043Z,2.90
2018-05-31T15:08:16.465Z,3.00
2018-05-31T15:10:49.509Z,2.93
2018-05-31T15:13:21.784Z,2.80
2018-05-31T15:15:54.202Z,2.93
2018-05-31T15:18:26.554Z,3.20
2018-05-31T15:20:59.548Z,2.73
2018-05-31T15:23:32.655Z,3.13
2018-05-31T15:26:05.810Z,2.83
2018-05-31T15:28:38.160Z,2.93
2018-05-31T15:31:10.542Z,2.70
2018-05-31T15:33:42.940Z,2.70
2018-05-31T15:36:15.323Z,2.70
2018-05-31T15:38:48.278Z,2.90
2018-05-31T15:41:20.675Z,3.27
2018-05-31T15:43:53.877Z,3.30
2018-05-31T15:46:27.020Z,2.73
2018-05-31T15:48:59.418Z,3.10
2018-05-31T15:51:31.745Z,3.03
2018-05-31T15:54:04.173Z,3.67
2018-05-31T15:56:36.561Z,3.60
2018-05-31T15:59:09.623Z,3.10
2018-05-31T16:01:41.972Z,2.77
2018-05-31T16:04:14.386Z,2.60
2018-05-31T16:06:47.557Z,2.67
2018-05-31T16:09:19.936Z,2.10
2018-05-31T16:11:52.295Z,2.90
2018-05-31T16:14:24.675Z,3.23
2018-05-31T16:16:56.979Z,2.57
2018-05-31T16:19:30.019Z,2.50
2018-05-31T16:22:02.363Z,2.50
2018-05-31T16:24:34.680Z,2.53
2018-05-31T16:27:06.958Z,1.93
2018-05-31T16:29:39.300Z,3.50
2018-05-31T16:32:11.726Z,2.90
2018-05-31T16:34:44.194Z,2.90
2018-05-31T16:37:17.376Z,3.30
2018-05-31T16:39:49.691Z,3.33
2018-05-31T16:42:22.051Z,3.40
2018-05-31T16:44:54.367Z,3.63
2018-05-31T16:47:26.768Z,3.40
2018-05-31T16:49:59.935Z,3.50
2018-05-31T16:52:32.429Z,3.30
2018-05-31T16:55:04.746Z,3.10
2018-05-31T16:57:37.158Z,2.97
2018-05-31T17:00:09.512Z,2.93
2018-05-31T17:02:42.014Z,2.93
2018-05-31T17:05:14.463Z,3.37
2018-05-31T17:07:47.121Z,3.73
2018-05-31T17:10:19.556Z,3.20
2018-05-31T17:12:51.885Z,3.50
2018-05-31T17:15:24.279Z,3.30
2018-05-31T17:17:56.687Z,3.10
2018-05-31T17:20:29.851Z,3.00
2018-05-31T17:23:02.353Z,3.00
2018-05-31T17:25:35.345Z,2.93
2018-05-31T17:28:08.597Z,2.97
2018-05-31T17:30:40.993Z,3.00
2018-05-31T17:33:14.055Z,2.73
2018-05-31T17:35:46.318Z,2.40
2018-05-31T17:38:18.725Z,2.93
2018-05-31T17:40:51.012Z,2.60
2018-05-31T17:43:24.110Z,2.87
2018-05-31T17:45:57.098Z,2.70
2018-05-31T17:48:30.262Z,3.23
2018-05-31T17:51:02.596Z,3.47
2018-05-31T17:53:34.941Z,2.77
2018-05-31T17:56:07.282Z,2.37
2018-05-31T17:58:39.606Z,3.07
2018-05-31T18:01:12.030Z,2.97
2018-05-31T18:14:20.203Z,2.83
2018-05-31T18:16:52.473Z,2.60
2018-05-31T18:19:24.800Z,3.20
2018-05-31T18:21:57.184Z,2.60
2018-05-31T18:24:29.506Z,3.37
2018-05-31T18:27:02.647Z,3.07
2018-05-31T18:29:35.107Z,2.57
2018-05-31T18:32:07.488Z,2.87
2018-05-31T18:34:39.841Z,2.83
2018-05-31T18:37:12.151Z,3.43
2018-05-31T18:39:51.563Z,2.87
2018-05-31T18:42:24.134Z,2.93
2018-05-31T18:44:56.641Z,3.17
2018-05-31T18:47:28.912Z,3.07
2018-05-31T18:50:01.241Z,2.77
2018-05-31T18:52:33.660Z,3.30
2018-05-31T18:55:06.136Z,3.37
2018-05-31T18:57:38.551Z,2.70
2018-05-31T19:00:11.739Z,3.43
2018-05-31T19:02:44.776Z,3.13
2018-05-31T19:05:17.101Z,3.20
2018-05-31T19:07:49.532Z,3.03
2018-05-31T19:10:21.863Z,3.27
2018-05-31T19:12:54.228Z,3.07
2018-05-31T19:15:27.432Z,3.03
2018-05-31T19:18:00.591Z,3.13
2018-05-31T19:20:32.984Z,3.97
2018-05-31T19:23:06.164Z,2.93
2018-05-31T19:25:39.400Z,3.47
2018-05-31T19:28:11.802Z,3.33
2018-05-31T19:30:44.125Z,3.57
2018-05-31T19:33:16.384Z,3.20
2018-05-31T19:35:49.727Z,3.27
2018-05-31T19:38:22.015Z,3.20
2018-05-31T19:40:54.367Z,3.80
2018-05-31T19:43:27.491Z,3.23
2018-05-31T19:45:59.870Z,2.90
2018-05-31T19:48:32.208Z,3.30
2018-05-31T19:51:04.499Z,3.33
2018-05-31T19:53:36.898Z,3.57
2018-05-31T19:56:10.062Z,3.57
2018-05-31T19:58:42.426Z,3.67
2018-05-31T20:01:14.838Z,3.30
2018-05-31T20:03:47.924Z,3.13
2018-05-31T20:06:21.152Z,3.13
2018-05-31T20:08:53.457Z,3.30
2018-05-31T20:11:25.853Z,2.53
2018-05-31T20:13:59.036Z,3.70
2018-05-31T20:16:31.540Z,2.77
2018-05-31T20:19:03.909Z,3.60
2018-05-31T20:21:36.528Z,3.63
2018-05-31T20:24:09.755Z,3.20
2018-05-31T20:26:42.088Z,2.70
2018-05-31T20:29:14.412Z,2.93
2018-05-31T20:31:46.899Z,2.90
2018-05-31T20:34:19.939Z,3.30
2018-05-31T20:36:52.322Z,2.63
2018-05-31T20:39:24.605Z,2.80
2018-05-31T20:41:57.011Z,2.70
2018-05-31T20:44:30.284Z,2.80
2018-05-31T20:47:03.144Z,2.93
2018-05-31T20:49:35.470Z,2.97
2018-05-31T20:52:07.951Z,3.37
2018-05-31T20:54:40.296Z,2.60
2018-05-31T20:57:13.485Z,3.47
2018-05-31T20:59:46.624Z,3.37
2018-05-31T21:02:19.768Z,2.87
2018-05-31T21:04:52.792Z,2.90
2018-05-31T21:07:25.144Z,2.57
2018-05-31T21:09:57.459Z,3.10
2018-05-31T21:12:29.801Z,2.83
2018-05-31T21:15:02.079Z,2.77
2018-05-31T21:17:34.585Z,2.63
2018-05-31T21:20:06.920Z,2.97
2018-05-31T21:22:39.987Z,2.67
2018-05-31T21:25:13.066Z,3.10
2018-05-31T21:27:46.177Z,2.53
2018-05-31T21:30:18.557Z,2.80
2018-05-31T21:32:50.942Z,2.47
2018-05-31T21:35:23.360Z,3.37
2018-05-31T21:37:55.700Z,3.67
2018-05-31T21:40:28.002Z,3.33
2018-05-31T21:43:00.332Z,3.87
2018-05-31T21:45:32.662Z,3.40
2018-05-31T21:48:05.034Z,3.63
2018-05-31T21:50:37.399Z,3.50
2018-05-31T21:53:10.539Z,3.60
2018-05-31T21:55:42.856Z,3.50
2018-05-31T21:58:15.152Z,3.37
2018-05-31T22:00:48.281Z,3.30
2018-05-31T22:03:20.571Z,3.10
2018-05-31T22:05:52.957Z,3.43
2018-05-31T22:08:25.291Z,3.70
2018-05-31T22:10:57.687Z,4.20
2018-05-31T22:13:30.063Z,3.07
2018-05-31T22:16:02.367Z,3.63
2018-05-31T22:18:35.509Z,3.60
2018-05-31T22:21:07.863Z,3.50
2018-05-31T22:23:40.275Z,3.40
2018-05-31T22:26:12.580Z,3.33
2018-05-31T22:28:45.701Z,3.20
2018-05-31T22:31:18.032Z,3.60
2018-05-31T22:33:50.350Z,3.83
2018-05-31T22:36:22.663Z,3.50
2018-05-31T22:38:54.940Z,3.67
2018-05-31T22:41:27.243Z,4.03
2018-05-31T22:43:59.684Z,3.43
2018-05-31T22:46:32.032Z,3.60
2018-05-31T22:49:04.480Z,3.50
2018-05-31T22:51:36.772Z,3.40
2018-05-31T22:54:09.166Z,3.67
2018-05-31T22:56:41.577Z,4.07
2018-05-31T22:59:14.777Z,3.43
2018-05-31T23:01:47.812Z,3.70
2018-05-31T23:04:20.293Z,2.90
2018-05-31T23:06:52.565Z,3.33
2018-05-31T23:09:24.868Z,3.50
2018-05-31T23:11:58.015Z,3.37
2018-05-31T23:14:30.325Z,3.27
2018-05-31T23:17:02.660Z,3.27
2018-05-31T23:19:35.103Z,3.50
2018-05-31T23:22:07.487Z,3.17
2018-05-31T23:24:39.803Z,3.97
2018-05-31T23:27:12.082Z,2.67
2018-05-31T23:29:44.468Z,3.07
2018-05-31T23:32:16.872Z,3.83
2018-05-31T23:34:49.292Z,3.90
2018-05-31T23:37:21.521Z,3.33
2018-05-31T23:39:54.574Z,3.20
2018-05-31T23:42:27.692Z,3.23
2018-05-31T23:45:00.030Z,4.27
2018-05-31T23:47:33.181Z,3.33
2018-05-31T23:50:05.486Z,3.47
2018-05-31T23:52:37.740Z,3.40
2018-05-31T23:55:10.128Z,3.13
2018-05-31T23:57:43.303Z,3.70
